createdAt,value
2024-04-30T00:01:53.868Z,66.25
2024-04-30T00:04:40.115Z,66.47
2024-04-30T00:07:26.052Z,66.16
2024-04-30T00:10:12.120Z,66.78
2024-04-30T00:12:57.940Z,67.18
2024-04-30T00:15:43.941Z,67.17
2024-04-30T00:18:29.654Z,67.38
2024-04-30T00:21:15.465Z,66.54
2024-04-30T00:24:01.438Z,66.51
2024-04-30T00:26:48.864Z,66.10
2024-04-30T00:29:34.580Z,66.28
2024-04-30T00:32:20.290Z,66.97
2024-04-30T00:35:06.390Z,67.95
2024-04-30T00:37:52.379Z,69.36
2024-04-30T00:40:38.131Z,69.35
2024-04-30T00:43:24.096Z,69.47
2024-04-30T00:46:10.915Z,69.62
2024-04-30T00:48:56.836Z,70.00
2024-04-30T00:51:43.048Z,70.80
2024-04-30T00:54:28.767Z,71.54
2024-04-30T00:57:15.799Z,71.24
2024-04-30T01:00:01.537Z,71.32
2024-04-30T01:02:48.696Z,71.27
2024-04-30T01:05:34.640Z,71.30
2024-04-30T01:08:20.656Z,71.48
2024-04-30T01:11:08.994Z,70.18
2024-04-30T01:13:55.059Z,70.86
2024-04-30T01:16:40.709Z,71.49
2024-04-30T01:19:26.846Z,70.68
2024-04-30T01:22:12.979Z,70.94
2024-04-30T01:24:58.823Z,70.64
2024-04-30T01:27:45.087Z,71.27
2024-04-30T01:30:31.003Z,71.82
2024-04-30T01:33:17.256Z,72.29
2024-04-30T01:36:03.293Z,72.00
2024-04-30T01:38:49.385Z,71.54
2024-04-30T01:41:35.426Z,72.21
2024-04-30T01:44:21.720Z,72.59
2024-04-30T01:47:07.537Z,72.01
2024-04-30T01:49:53.417Z,72.22
2024-04-30T01:52:42.820Z,72.43
2024-04-30T01:55:28.553Z,72.24
2024-04-30T01:58:15.235Z,73.07
2024-04-30T02:01:01.514Z,74.18
2024-04-30T02:03:47.466Z,74.33
2024-04-30T02:06:33.420Z,74.07
2024-04-30T02:09:18.887Z,73.54
2024-04-30T02:12:04.487Z,73.54
2024-04-30T02:14:50.084Z,74.26
2024-04-30T02:17:35.569Z,74.72
2024-04-30T02:20:21.658Z,75.58
2024-04-30T02:23:07.636Z,74.67
2024-04-30T02:25:54.262Z,74.78
2024-04-30T02:28:41.441Z,75.29
2024-04-30T02:31:45.732Z,74.85
2024-04-30T02:34:31.805Z,74.57
2024-04-30T02:37:17.694Z,73.17
2024-04-30T02:40:04.079Z,74.07
2024-04-30T02:42:49.737Z,74.61
2024-04-30T02:45:35.773Z,74.26
2024-04-30T02:48:22.287Z,73.96
2024-04-30T02:51:07.829Z,75.18
2024-04-30T02:53:53.840Z,74.79
2024-04-30T02:56:40.288Z,75.02
2024-04-30T02:59:26.062Z,75.24
2024-04-30T03:02:11.410Z,75.74
2024-04-30T03:04:57.494Z,76.13
2024-04-30T03:07:43.478Z,76.64
2024-04-30T03:10:29.540Z,76.43
2024-04-30T03:13:15.607Z,76.10
2024-04-30T03:16:04.574Z,76.13
2024-04-30T03:18:50.482Z,76.26
2024-04-30T03:21:36.580Z,75.12
2024-04-30T03:24:22.320Z,73.77
2024-04-30T03:27:08.182Z,73.25
2024-04-30T03:29:54.040Z,74.84
2024-04-30T03:32:39.808Z,74.93
2024-04-30T03:35:27.670Z,75.19
2024-04-30T03:38:14.103Z,76.01
2024-04-30T03:41:00.099Z,76.93
2024-04-30T03:43:46.118Z,77.07
2024-04-30T03:46:32.436Z,77.80
2024-04-30T03:49:18.755Z,76.75
2024-04-30T03:52:05.047Z,77.16
2024-04-30T03:54:50.823Z,77.47
2024-04-30T03:57:36.248Z,77.54
2024-04-30T04:00:21.777Z,78.20
2024-04-30T04:03:07.592Z,74.87
2024-04-30T04:05:53.479Z,73.90
2024-04-30T04:08:39.540Z,74.20
2024-04-30T04:11:44.468Z,75.43
2024-04-30T04:14:49.182Z,75.08
2024-04-30T04:17:35.185Z,75.20
2024-04-30T04:20:26.032Z,74.94
2024-04-30T04:23:12.103Z,74.91
2024-04-30T04:25:57.988Z,75.26
2024-04-30T04:28:43.663Z,76.90
2024-04-30T04:31:29.629Z,77.62
2024-04-30T04:34:15.569Z,77.31
2024-04-30T04:37:01.116Z,77.49
2024-04-30T04:39:47.109Z,76.33
2024-04-30T04:42:33.230Z,77.14
2024-04-30T04:45:19.281Z,78.17
2024-04-30T04:48:05.581Z,78.57
2024-04-30T04:50:51.441Z,77.28
2024-04-30T04:53:38.828Z,76.80
2024-04-30T04:56:24.566Z,77.20
2024-04-30T04:59:10.569Z,76.78
2024-04-30T05:01:55.989Z,75.23
2024-04-30T05:04:42.140Z,75.10
2024-04-30T05:07:28.401Z,76.77
2024-04-30T05:10:14.727Z,77.10
2024-04-30T05:13:00.608Z,76.90
2024-04-30T05:15:46.227Z,77.46
2024-04-30T05:18:32.185Z,77.60
2024-04-30T05:21:18.197Z,77.77
2024-04-30T05:24:03.618Z,77.12
2024-04-30T05:26:49.479Z,77.16
2024-04-30T05:29:35.522Z,76.96
2024-04-30T05:32:21.616Z,75.93
2024-04-30T05:35:08.751Z,76.17
2024-04-30T05:37:54.587Z,77.05
2024-04-30T05:40:40.760Z,77.02
2024-04-30T05:43:27.220Z,76.35
2024-04-30T05:46:13.303Z,73.54
2024-04-30T05:48:59.553Z,73.85
2024-04-30T05:51:45.063Z,74.19
2024-04-30T05:54:31.100Z,73.70
2024-04-30T05:57:17.269Z,73.29
2024-04-30T06:00:03.315Z,72.86
2024-04-30T06:02:50.232Z,74.75
2024-04-30T06:05:36.033Z,75.71
2024-04-30T06:08:21.941Z,75.18
2024-04-30T06:11:09.714Z,74.14
2024-04-30T06:13:56.590Z,73.43
2024-04-30T06:16:42.711Z,72.96
2024-04-30T06:19:28.792Z,72.84
2024-04-30T06:22:14.990Z,73.04
2024-04-30T06:25:00.529Z,73.40
2024-04-30T06:27:47.837Z,74.00
2024-04-30T06:30:33.793Z,73.33
2024-04-30T06:33:20.010Z,71.97
2024-04-30T06:36:06.672Z,71.54
2024-04-30T06:38:52.820Z,70.52
2024-04-30T06:41:38.904Z,69.79
2024-04-30T06:44:25.352Z,69.54
2024-04-30T06:47:11.425Z,69.55
2024-04-30T06:49:57.566Z,69.09
2024-04-30T06:52:43.630Z,69.88
2024-04-30T06:55:29.670Z,69.70
2024-04-30T06:58:15.988Z,68.76
2024-04-30T07:01:02.067Z,68.60
2024-04-30T07:03:47.974Z,67.71
2024-04-30T07:06:35.792Z,67.98
2024-04-30T07:09:21.848Z,65.46
2024-04-30T07:12:09.136Z,65.23
2024-04-30T07:14:55.115Z,65.26
2024-04-30T07:17:41.538Z,64.51
2024-04-30T07:20:27.495Z,63.15
2024-04-30T07:23:13.431Z,63.97
2024-04-30T07:25:59.667Z,63.48
2024-04-30T07:28:46.014Z,65.03
2024-04-30T07:31:31.872Z,63.71
2024-04-30T07:34:18.691Z,60.07
2024-04-30T07:37:05.319Z,58.97
2024-04-30T07:39:51.757Z,59.17
2024-04-30T07:42:37.548Z,59.21
2024-04-30T07:45:24.685Z,60.53
2024-04-30T07:48:10.429Z,59.17
2024-04-30T07:50:56.926Z,56.70
2024-04-30T07:53:42.698Z,56.23
2024-04-30T07:56:28.439Z,56.92
2024-04-30T07:59:14.367Z,55.98
2024-04-30T08:02:00.352Z,58.68
2024-04-30T08:04:46.627Z,55.13
2024-04-30T08:07:32.224Z,55.51
2024-04-30T08:10:19.046Z,54.69
2024-04-30T08:13:05.391Z,55.67
2024-04-30T08:15:51.218Z,54.90
2024-04-30T08:18:36.767Z,54.58
2024-04-30T08:21:22.278Z,55.57
2024-04-30T08:24:08.411Z,54.87
2024-04-30T08:26:54.522Z,52.21
2024-04-30T08:29:40.142Z,54.70
2024-04-30T08:32:26.411Z,51.22
2024-04-30T08:35:12.633Z,50.27
2024-04-30T08:38:01.250Z,49.90
2024-04-30T08:40:48.233Z,48.87
2024-04-30T08:43:34.751Z,50.99
2024-04-30T08:46:20.955Z,47.72
2024-04-30T08:49:07.617Z,48.05
2024-04-30T08:51:54.689Z,48.32
2024-04-30T08:54:43.499Z,48.01
2024-04-30T08:57:29.565Z,49.83
2024-04-30T09:00:16.127Z,46.82
2024-04-30T09:03:04.685Z,45.93
2024-04-30T09:05:53.592Z,45.57
2024-04-30T09:08:39.141Z,46.80
2024-04-30T09:11:25.116Z,44.15
2024-04-30T09:14:10.914Z,44.28
2024-04-30T09:16:57.007Z,45.53
2024-04-30T09:19:42.788Z,46.75
2024-04-30T09:22:28.882Z,44.96
2024-04-30T09:25:16.472Z,42.49
2024-04-30T09:28:02.803Z,42.49
2024-04-30T09:30:59.749Z,41.09
2024-04-30T09:33:57.259Z,38.81
2024-04-30T09:36:43.179Z,38.38
2024-04-30T09:39:30.764Z,36.68
2024-04-30T09:42:17.256Z,37.46
2024-04-30T09:45:04.186Z,36.13
2024-04-30T09:47:51.666Z,33.71
2024-04-30T09:50:38.922Z,36.09
2024-04-30T09:53:26.594Z,31.80
2024-04-30T09:56:18.043Z,31.26
2024-04-30T09:59:04.000Z,28.21
2024-04-30T10:01:50.416Z,28.59
2024-04-30T10:04:37.350Z,28.05
2024-04-30T10:07:24.886Z,27.91
2024-04-30T10:10:11.063Z,30.14
2024-04-30T10:13:16.747Z,25.61
2024-04-30T10:16:15.961Z,28.51
2024-04-30T10:19:03.928Z,25.27
2024-04-30T10:21:49.921Z,23.98
2024-04-30T10:24:40.034Z,24.24
2024-04-30T10:27:26.049Z,23.92
2024-04-30T10:30:11.963Z,23.96
2024-04-30T10:32:58.317Z,21.41
2024-04-30T10:35:44.665Z,22.71
2024-04-30T10:38:30.759Z,22.22
2024-04-30T10:41:17.232Z,20.40
2024-04-30T10:44:04.835Z,21.99
2024-04-30T10:46:51.135Z,20.77
2024-04-30T10:49:37.275Z,21.10
2024-04-30T10:52:23.475Z,21.87
2024-04-30T10:55:12.393Z,23.52
2024-04-30T10:57:59.756Z,21.44
2024-04-30T11:00:46.504Z,20.97
2024-04-30T11:03:34.800Z,20.42
2024-04-30T11:06:20.557Z,21.52
2024-04-30T11:09:07.674Z,21.02
2024-04-30T11:12:02.745Z,19.85
2024-04-30T11:14:48.952Z,20.08
2024-04-30T11:17:34.642Z,18.86
2024-04-30T11:20:20.590Z,19.41
2024-04-30T11:23:06.505Z,19.51
2024-04-30T11:25:52.500Z,18.92
2024-04-30T11:28:38.377Z,19.62
2024-04-30T11:31:24.528Z,20.09
2024-04-30T11:34:10.209Z,20.23
2024-04-30T11:36:56.285Z,20.42
2024-04-30T11:39:42.243Z,20.42
2024-04-30T11:42:34.399Z,20.94
2024-04-30T11:45:27.297Z,19.49
2024-04-30T11:48:13.700Z,19.78
2024-04-30T11:51:03.331Z,19.60
2024-04-30T11:53:49.755Z,20.94
2024-04-30T11:56:35.502Z,23.54
2024-04-30T11:59:22.788Z,21.83
2024-04-30T12:02:08.883Z,23.11
2024-04-30T12:04:55.207Z,22.68
2024-04-30T12:07:41.437Z,21.66
2024-04-30T12:10:27.959Z,21.63
2024-04-30T12:13:13.948Z,21.19
2024-04-30T12:15:59.864Z,19.31
2024-04-30T12:18:45.994Z,21.17
2024-04-30T12:21:32.198Z,20.22
2024-04-30T12:24:17.904Z,22.69
2024-04-30T12:27:04.748Z,20.06
2024-04-30T12:29:50.811Z,19.96
2024-04-30T12:32:36.774Z,21.96
2024-04-30T12:35:23.828Z,18.98
2024-04-30T12:38:09.833Z,19.76
2024-04-30T12:40:56.694Z,19.53
2024-04-30T12:43:42.966Z,20.61
2024-04-30T12:46:30.571Z,19.65
2024-04-30T12:49:17.158Z,19.37
2024-04-30T12:52:04.247Z,19.31
2024-04-30T12:54:50.279Z,18.08
2024-04-30T12:57:36.397Z,18.04
2024-04-30T13:00:24.230Z,18.92
2024-04-30T13:03:10.373Z,17.77
2024-04-30T13:05:56.706Z,18.19
2024-04-30T13:08:42.858Z,18.13
2024-04-30T13:11:28.780Z,18.92
2024-04-30T13:14:15.523Z,18.28
2024-04-30T13:17:01.680Z,19.20
2024-04-30T13:19:47.814Z,20.33
2024-04-30T13:22:34.062Z,20.38
2024-04-30T13:25:19.993Z,21.23
2024-04-30T13:28:06.499Z,20.04
2024-04-30T13:30:52.651Z,21.07
2024-04-30T13:33:38.681Z,21.21
2024-04-30T13:36:25.448Z,21.15
2024-04-30T13:39:11.789Z,21.23
2024-04-30T13:41:58.185Z,20.78
2024-04-30T13:44:44.191Z,20.80
2024-04-30T13:47:30.376Z,20.96
2024-04-30T13:50:16.457Z,20.78
2024-04-30T13:53:02.341Z,21.98
2024-04-30T13:55:48.524Z,20.02
2024-04-30T13:58:34.613Z,20.04
2024-04-30T14:01:20.934Z,19.62
2024-04-30T14:04:07.239Z,19.84
2024-04-30T14:06:53.466Z,20.50
2024-04-30T14:09:40.338Z,19.79
2024-04-30T14:12:27.733Z,18.58
2024-04-30T14:15:14.153Z,18.65
2024-04-30T14:18:00.221Z,18.12
2024-04-30T14:20:46.383Z,18.73
2024-04-30T14:23:34.841Z,18.44
2024-04-30T14:26:21.142Z,19.70
2024-04-30T14:29:10.887Z,20.68
2024-04-30T14:31:56.890Z,18.86
2024-04-30T14:34:43.090Z,18.80
2024-04-30T14:37:29.056Z,20.54
2024-04-30T14:40:14.906Z,20.07
2024-04-30T14:43:00.981Z,20.41
2024-04-30T14:45:47.283Z,20.71
2024-04-30T14:48:33.845Z,21.06
2024-04-30T14:51:20.319Z,21.19
2024-04-30T14:54:07.237Z,20.74
2024-04-30T14:56:55.401Z,20.94
2024-04-30T14:59:41.944Z,20.25
2024-04-30T15:02:27.966Z,20.28
2024-04-30T15:05:13.920Z,20.84
2024-04-30T15:07:59.906Z,21.24
2024-04-30T15:10:46.233Z,22.67
2024-04-30T15:13:32.376Z,22.08
2024-04-30T15:16:21.042Z,21.84
2024-04-30T15:19:07.223Z,22.18
2024-04-30T15:21:53.240Z,22.45
2024-04-30T15:24:39.255Z,22.75
2024-04-30T15:27:25.313Z,23.07
2024-04-30T15:30:14.617Z,23.17
2024-04-30T15:33:00.586Z,24.10
2024-04-30T15:35:46.667Z,24.59
2024-04-30T15:38:32.699Z,24.68
2024-04-30T15:41:22.884Z,25.75
2024-04-30T15:44:09.106Z,25.83
2024-04-30T15:46:55.299Z,26.31
2024-04-30T15:49:41.725Z,26.48
2024-04-30T15:52:27.802Z,26.64
2024-04-30T15:55:13.888Z,27.16
2024-04-30T15:57:59.786Z,26.79
2024-04-30T16:00:46.018Z,26.98
2024-04-30T16:03:32.457Z,26.82
2024-04-30T16:06:19.979Z,26.71
2024-04-30T16:09:08.252Z,26.91
2024-04-30T16:11:54.339Z,27.11
2024-04-30T16:14:40.566Z,26.79
2024-04-30T16:17:26.887Z,28.15
2024-04-30T16:20:12.829Z,28.58
2024-04-30T16:22:58.835Z,28.44
2024-04-30T16:25:45.227Z,29.19
2024-04-30T16:28:31.730Z,29.58
2024-04-30T16:31:18.463Z,29.81
2024-04-30T16:34:04.471Z,28.42
2024-04-30T16:36:57.747Z,29.22
2024-04-30T16:39:43.931Z,29.33
2024-04-30T16:42:31.306Z,29.08
2024-04-30T16:45:17.154Z,28.74
2024-04-30T16:48:03.071Z,28.95
2024-04-30T16:50:48.853Z,29.39
2024-04-30T16:53:34.691Z,28.82
2024-04-30T16:56:20.656Z,29.50
2024-04-30T16:59:06.840Z,29.44
2024-04-30T17:01:54.399Z,28.57
2024-04-30T17:04:40.336Z,30.34
2024-04-30T17:07:26.250Z,31.18
2024-04-30T17:10:12.521Z,31.64
2024-04-30T17:12:58.892Z,30.62
2024-04-30T17:15:44.794Z,30.98
2024-04-30T17:18:31.372Z,30.48
2024-04-30T17:21:19.732Z,30.60
2024-04-30T17:24:05.753Z,31.97
2024-04-30T17:26:52.501Z,33.22
2024-04-30T17:29:43.172Z,33.73
2024-04-30T17:32:30.003Z,31.58
2024-04-30T17:35:15.984Z,33.31
2024-04-30T17:38:01.841Z,32.53
2024-04-30T17:40:47.856Z,33.36
2024-04-30T17:43:34.150Z,33.86
2024-04-30T17:46:20.774Z,34.90
2024-04-30T17:49:11.654Z,33.24
2024-04-30T17:51:57.435Z,35.30
2024-04-30T17:54:43.761Z,35.14
2024-04-30T17:57:29.561Z,36.00
2024-04-30T18:00:15.916Z,36.48
2024-04-30T18:03:01.709Z,34.81
2024-04-30T18:05:47.636Z,34.49
2024-04-30T18:08:33.758Z,37.27
2024-04-30T18:11:19.745Z,37.18
2024-04-30T18:14:05.943Z,36.76
2024-04-30T18:16:52.338Z,37.09
2024-04-30T18:19:38.582Z,37.01
2024-04-30T18:22:24.635Z,37.94
2024-04-30T18:25:10.690Z,38.47
2024-04-30T18:27:56.733Z,37.14
2024-04-30T18:30:42.949Z,37.86
2024-04-30T18:33:29.357Z,39.10
2024-04-30T18:36:15.494Z,39.78
2024-04-30T18:39:01.818Z,39.28
2024-04-30T18:41:47.662Z,39.07
2024-04-30T18:44:34.951Z,38.75
2024-04-30T18:47:21.368Z,39.54
2024-04-30T18:50:07.595Z,39.27
2024-04-30T18:52:53.780Z,39.93
2024-04-30T18:55:39.670Z,39.64
2024-04-30T18:58:25.765Z,40.26
2024-04-30T19:01:11.939Z,38.82
2024-04-30T19:03:58.129Z,39.99
2024-04-30T19:06:45.875Z,39.90
2024-04-30T19:09:31.672Z,39.87
2024-04-30T19:12:17.865Z,40.38
2024-04-30T19:15:04.941Z,40.65
2024-04-30T19:17:50.760Z,41.27
2024-04-30T19:20:38.343Z,42.48
2024-04-30T19:23:25.435Z,42.44
2024-04-30T19:26:15.509Z,42.58
2024-04-30T19:29:01.670Z,43.36
2024-04-30T19:31:49.404Z,43.25
2024-04-30T19:34:35.495Z,42.72
2024-04-30T19:37:21.644Z,42.23
2024-04-30T19:40:08.411Z,43.17
2024-04-30T19:42:54.752Z,43.78
2024-04-30T19:45:41.509Z,45.11
2024-04-30T19:48:30.349Z,44.26
2024-04-30T19:51:22.672Z,43.71
2024-04-30T19:54:09.011Z,44.83
2024-04-30T19:56:55.036Z,44.69
2024-04-30T19:59:41.751Z,44.26
2024-04-30T20:02:28.028Z,44.72
2024-04-30T20:05:14.218Z,44.53
2024-04-30T20:08:00.871Z,44.63
2024-04-30T20:10:47.321Z,46.32
2024-04-30T20:13:35.461Z,46.33
2024-04-30T20:16:23.956Z,46.95
2024-04-30T20:19:10.955Z,47.16
2024-04-30T20:21:56.697Z,46.76
2024-04-30T20:24:42.487Z,47.63
2024-04-30T20:27:28.882Z,47.25
2024-04-30T20:30:14.621Z,48.13
2024-04-30T20:33:01.382Z,48.00
2024-04-30T20:35:47.604Z,49.01
2024-04-30T20:38:37.396Z,48.91
2024-04-30T20:41:23.431Z,48.95
2024-04-30T20:44:09.475Z,49.61
2024-04-30T20:46:55.331Z,48.63
2024-04-30T20:49:43.303Z,48.91
2024-04-30T20:52:29.646Z,49.18
2024-04-30T20:55:15.714Z,51.18
2024-04-30T20:58:01.882Z,50.61
2024-04-30T21:00:52.280Z,50.34
2024-04-30T21:03:38.310Z,50.64
2024-04-30T21:06:24.388Z,51.29
2024-04-30T21:09:13.588Z,52.04
2024-04-30T21:11:59.345Z,51.03
2024-04-30T21:14:44.969Z,50.53
2024-04-30T21:17:31.121Z,49.33
2024-04-30T21:20:17.436Z,50.49
2024-04-30T21:23:03.216Z,51.43
2024-04-30T21:25:48.887Z,51.39
2024-04-30T21:28:37.448Z,51.55
2024-04-30T21:31:23.266Z,51.38
2024-04-30T21:34:09.707Z,52.21
2024-04-30T21:36:57.429Z,51.82
2024-04-30T21:39:45.450Z,52.37
2024-04-30T21:42:31.508Z,51.84
2024-04-30T21:45:17.960Z,52.21
2024-04-30T21:48:03.695Z,52.88
2024-04-30T21:50:49.802Z,52.15
2024-04-30T21:53:37.960Z,52.63
2024-04-30T21:56:29.892Z,54.09
2024-04-30T21:59:15.758Z,52.97
2024-04-30T22:02:01.968Z,53.92
2024-04-30T22:04:47.876Z,54.07
2024-04-30T22:07:34.549Z,54.00
2024-04-30T22:10:20.512Z,54.93
2024-04-30T22:13:06.134Z,54.83
2024-04-30T22:15:52.095Z,55.30
2024-04-30T22:18:38.309Z,56.11
2024-04-30T22:21:25.489Z,55.98
2024-04-30T22:24:11.600Z,56.38
2024-04-30T22:26:57.308Z,56.24
2024-04-30T22:29:43.268Z,55.84
2024-04-30T22:32:29.571Z,55.84
2024-04-30T22:35:16.634Z,55.65
2024-04-30T22:38:02.728Z,57.28
2024-04-30T22:40:48.494Z,57.68
2024-04-30T22:43:34.893Z,57.92
2024-04-30T22:46:20.586Z,57.10
2024-04-30T22:49:06.331Z,57.61
2024-04-30T22:51:52.427Z,57.84
2024-04-30T22:54:38.417Z,58.08
2024-04-30T22:57:24.218Z,58.91
2024-04-30T23:00:11.728Z,57.84
2024-04-30T23:03:00.783Z,58.39
2024-04-30T23:05:47.585Z,58.71
2024-04-30T23:08:33.865Z,58.55
2024-04-30T23:11:20.080Z,59.14
2024-04-30T23:14:06.062Z,59.35
2024-04-30T23:16:51.586Z,60.36
2024-04-30T23:19:37.125Z,60.66
2024-04-30T23:22:24.955Z,61.33
2024-04-30T23:25:11.054Z,60.85
2024-04-30T23:27:56.800Z,59.18
2024-04-30T23:30:42.849Z,59.45
2024-04-30T23:33:28.586Z,59.85
2024-04-30T23:36:14.465Z,59.56
2024-04-30T23:38:59.928Z,59.81
2024-04-30T23:41:45.513Z,59.76
2024-04-30T23:44:31.055Z,60.71
2024-04-30T23:47:16.879Z,59.92
2024-04-30T23:50:03.652Z,60.33
2024-04-30T23:52:49.367Z,60.48
2024-04-30T23:55:35.386Z,59.78
2024-04-30T23:58:20.775Z,58.92
